Time;durP1;ratioP1;P1;durP2;ratioP2;P2;SDS_P1;SDS_P2;PMS_P1;PMS_P2;Temp;Humidity;BMP_temperature;BMP_pressure;BME280_temperature;BME280_humidity;BME280_pressure;Samples;Min_cycle;Max_cycle;Signal;HPM_P1;HPM_P2
2022/09/24 09:04:18;;;;;;;1999.90;999.90;;;20.30;99.90;;;;;;1731212;29;22866;-72
2022/09/24 09:06:57;;;;;;;1999.90;999.90;;;21.30;99.90;;;;;;5058712;29;20045;-79
2022/09/24 09:09:49;;;;;;;1999.90;999.90;;;21.70;99.90;;;;;;5068610;29;20036;-75
2022/09/24 09:12:45;;;;;;;1999.90;999.90;;;22.10;99.90;;;;;;5068402;29;20028;-79
2022/09/24 09:15:25;;;;;;;1999.90;999.90;;;22.30;99.90;;;;;;5065451;29;20115;-79
2022/09/24 09:17:58;;;;;;;;;;;22.40;99.90;;;;;;5066872;29;20503;-79
2022/09/24 09:20:39;;;;;;;1999.90;999.90;;;21.80;99.90;;;;;;5066733;29;19903;-78
2022/09/24 09:23:32;;;;;;;1999.90;999.90;;;21.50;99.90;;;;;;5066364;29;20512;-78
2022/09/24 09:26:05;;;;;;;1999.90;999.90;;;21.40;99.90;;;;;;5066485;29;20461;-79
2022/09/24 09:28:36;;;;;;;1999.90;999.90;;;21.70;99.90;;;;;;5071482;29;20397;-76
2022/09/24 09:31:22;;;;;;;1999.90;999.90;;;21.90;99.90;;;;;;5065994;29;20385;-78
2022/09/24 09:34:08;;;;;;;1999.90;999.90;;;21.90;99.90;;;;;;5066063;29;20436;-79
2022/09/24 09:37:28;;;;;;;1999.90;999.90;;;21.90;99.90;;;;;;5066604;29;20112;-78
2022/09/24 09:40:32;;;;;;;1999.90;999.90;;;21.80;99.90;;;;;;5025573;29;20025;-78
2022/09/24 09:43:14;;;;;;;1999.90;999.90;;;22.10;97.00;;;;;;5066055;29;20096;-78
2022/09/24 09:48:20;;;;;;;1999.90;999.90;;;21.10;95.60;;;;;;5065919;29;20115;-78
2022/09/24 09:50:58;;;;;;;1999.90;999.90;;;21.50;97.90;;;;;;5066304;29;20477;-79
2022/09/24 09:53:30;;;;;;;1999.90;999.90;;;21.80;98.80;;;;;;5049140;29;20040;-77
2022/09/24 09:56:06;;;;;;;1999.90;999.90;;;22.10;99.20;;;;;;5065890;29;20028;-78
2022/09/24 09:58:42;;;;;;;1999.90;999.90;;;21.90;97.80;;;;;;5066054;29;20155;-79
2022/09/24 10:01:17;;;;;;;1999.90;999.90;;;22.70;98.30;;;;;;5065323;29;20040;-77
2022/09/24 10:03:48;;;;;;;1999.90;999.90;;;22.80;94.30;;;;;;5066368;29;20040;-77
2022/09/24 10:06:24;;;;;;;1999.90;999.90;;;21.70;94.50;;;;;;5065959;29;20048;-79
2022/09/24 10:09:14;;;;;;;1999.90;999.90;;;21.70;94.90;;;;;;5064992;29;20508;-78
2022/09/24 10:11:46;;;;;;;1999.90;999.90;;;22.20;96.10;;;;;;5065391;29;20032;-78
2022/09/24 10:14:19;;;;;;;1999.90;999.90;;;22.70;94.70;;;;;;5065090;29;20392;-78
2022/09/24 10:16:54;;;;;;;1999.90;999.90;;;22.80;93.70;;;;;;5070059;29;20040;-79
2022/09/24 10:19:27;;;;;;;1999.90;999.90;;;21.80;90.40;;;;;;5085202;29;20408;-77
2022/09/24 10:22:23;;;;;;;1999.90;999.90;;;21.50;92.20;;;;;;5085118;29;20396;-78
2022/09/24 10:24:56;;;;;;;1999.90;999.90;;;22.00;95.20;;;;;;5074588;29;20027;-77
2022/09/24 10:27:34;;;;;;;1999.90;999.90;;;22.00;92.90;;;;;;5077329;29;20032;-80
2022/09/24 10:33:07;;;;;;;1999.90;999.90;;;21.20;93.30;;;;;;5046300;29;20053;-79
2022/09/24 10:35:38;;;;;;;1999.90;999.90;;;21.30;94.80;;;;;;5046095;29;20028;-78
2022/09/24 10:38:20;;;;;;;1999.90;999.90;;;20.90;97.40;;;;;;5046000;29;20462;-77
2022/09/24 10:40:51;;;;;;;1999.90;999.90;;;21.00;96.20;;;;;;5063915;29;20028;-77
2022/09/24 10:43:22;;;;;;;1999.90;999.90;;;21.50;93.70;;;;;;5065302;29;20036;-79
2022/09/24 10:46:07;;;;;;;1999.90;999.90;;;21.50;92.50;;;;;;5065232;29;20033;-76
2022/09/24 10:48:48;;;;;;;1999.90;999.90;;;20.90;87.70;;;;;;5065185;29;20043;-77
2022/09/24 10:51:27;;;;;;;1999.90;999.90;;;21.70;87.20;;;;;;5065155;29;20366;-77
2022/09/24 10:54:27;;;;;;;1999.90;999.90;;;21.00;86.60;;;;;;5065103;29;20033;-78
2022/09/24 10:56:59;;;;;;;;;;;21.40;88.50;;;;;;5048777;29;20560;-78
2022/09/24 10:59:55;;;;;;;1999.90;999.90;;;22.20;92.10;;;;;;5064682;29;19911;-78
2022/09/24 11:02:52;;;;;;;1999.90;999.90;;;22.20;88.30;;;;;;5064828;29;20051;-79
2022/09/24 11:05:29;;;;;;;1999.90;999.90;;;22.30;89.00;;;;;;5078532;29;20056;-78
2022/09/24 11:08:25;;;;;;;1999.90;999.90;;;22.50;87.20;;;;;;5072848;29;20056;-76
2022/09/24 11:11:17;;;;;;;1999.90;999.90;;;21.60;86.40;;;;;;5065511;29;20076;-79
2022/09/24 11:14:15;;;;;;;1999.90;999.90;;;21.50;87.10;;;;;;5068394;29;20480;-79
2022/09/24 11:16:56;;;;;;;1999.90;999.90;;;21.80;89.80;;;;;;5071054;29;20052;-73
2022/09/24 11:19:30;;;;;;;1999.90;999.90;;;21.40;87.20;;;;;;5087553;29;20043;-72
2022/09/24 11:22:32;;;;;;;1999.90;999.90;;;21.30;88.80;;;;;;5080681;29;20084;-82
2022/09/24 11:25:15;;;;;;;1999.90;999.90;;;21.00;91.60;;;;;;5068427;29;20037;-78
2022/09/24 11:28:02;;;;;;;1999.90;999.90;;;21.00;90.40;;;;;;5068887;29;20043;-78
2022/09/24 11:31:07;;;;;;;1999.90;999.90;;;21.50;95.00;;;;;;5068591;29;20029;-79
2022/09/24 11:34:01;;;;;;;1999.90;999.90;;;21.80;86.80;;;;;;5068564;29;20028;-78
2022/09/24 11:36:48;;;;;;;1999.90;999.90;;;22.60;85.20;;;;;;5065721;29;20068;-78
2022/09/24 11:39:45;;;;;;;1999.90;999.90;;;23.20;83.10;;;;;;5079878;29;20426;-79
2022/09/24 11:42:47;;;;;;;1999.90;999.90;;;22.80;79.40;;;;;;5071361;29;20057;-79
2022/09/24 11:45:24;;;;;;;1999.90;999.90;;;23.30;83.70;;;;;;5049036;29;20053;-79
2022/09/24 11:48:01;;;;;;;1999.90;999.90;;;23.70;86.80;;;;;;5047854;29;20032;-78
2022/09/24 11:51:09;;;;;;;1999.90;999.90;;;23.30;99.20;;;;;;5048925;29;20032;-75
2022/09/24 11:54:12;;;;;;;1999.90;999.90;;;22.70;99.80;;;;;;5046142;29;20598;-78
2022/09/24 11:56:48;;;;;;;1999.90;999.90;;;22.10;96.20;;;;;;5032992;29;20052;-77
2022/09/24 11:59:41;;;;;;;1999.90;999.90;;;21.30;91.80;;;;;;5048928;29;20359;-75
2022/09/24 12:02:16;;;;;;;1999.90;999.90;;;21.30;99.90;;;;;;5048760;29;20036;-77
2022/09/24 12:04:53;;;;;;;1999.90;999.90;;;22.60;99.90;;;;;;5048526;29;20048;-78
2022/09/24 12:07:28;;;;;;;1999.90;999.90;;;23.00;99.90;;;;;;5048655;29;20069;-78
2022/09/24 12:10:34;;;;;;;1999.90;999.90;;;22.80;99.80;;;;;;5048800;29;20033;-74
2022/09/24 12:13:11;;;;;;;1999.90;999.90;;;22.00;99.90;;;;;;5026875;29;20052;-79
2022/09/24 12:15:48;;;;;;;1999.90;999.90;;;21.60;99.90;;;;;;5048572;29;20028;-77
2022/09/24 12:18:53;;;;;;;1999.90;999.90;;;21.30;99.90;;;;;;5048586;29;20033;-78
2022/09/24 12:21:31;;;;;;;1999.90;999.90;;;20.50;99.90;;;;;;5046504;29;20101;-79
2022/09/24 12:24:08;;;;;;;1999.90;999.90;;;20.50;99.90;;;;;;5047800;29;20029;-74
2022/09/24 12:26:40;;;;;;;1999.90;999.90;;;20.50;99.90;;;;;;5048494;29;20073;-78
2022/09/24 12:32:53;;;;;;;1999.90;999.90;;;20.20;99.90;;;;;;5047912;29;20109;-79
2022/09/24 12:35:45;;;;;;;1999.90;999.90;;;19.80;99.90;;;;;;5048201;29;20029;-78
2022/09/24 12:38:34;;;;;;;1999.90;999.90;;;20.50;99.90;;;;;;5048724;29;20549;-74
2022/09/24 12:41:08;;;;;;;1999.90;999.90;;;20.80;99.90;;;;;;5048129;29;20033;-79
2022/09/24 12:44:00;;;;;;;1999.90;999.90;;;20.60;99.90;;;;;;5046843;29;20057;-77
2022/09/24 12:46:47;;;;;;;1999.90;999.90;;;21.30;99.90;;;;;;5048016;29;20029;-79
2022/09/24 12:49:24;;;;;;;1999.90;999.90;;;21.80;99.90;;;;;;5048037;29;20784;-77
2022/09/24 12:52:16;;;;;;;1999.90;999.90;;;22.00;99.90;;;;;;5047666;29;20021;-79
2022/09/24 12:54:55;;;;;;;1999.90;999.90;;;22.70;99.90;;;;;;5046419;29;20072;-78
2022/09/24 12:57:48;;;;;;;1999.90;999.90;;;22.80;99.40;;;;;;5047811;29;20033;-78
2022/09/24 13:00:32;;;;;;;1999.90;999.90;;;22.80;99.90;;;;;;5047213;29;20075;-78
2022/09/24 13:03:05;;;;;;;1999.90;999.90;;;22.90;99.90;;;;;;5047494;29;20040;-78
2022/09/24 13:05:41;;;;;;;1999.90;999.90;;;23.10;92.50;;;;;;5047275;29;20101;-79
2022/09/24 13:08:22;;;;;;;1999.90;999.90;;;22.90;83.90;;;;;;5047528;29;20033;-81
2022/09/24 13:11:04;;;;;;;1999.90;999.90;;;23.30;89.00;;;;;;5047477;29;20057;-80
2022/09/24 13:13:42;;;;;;;1999.90;999.90;;;22.80;93.80;;;;;;5047648;29;20206;-81
2022/09/24 13:16:19;;;;;;;1999.90;999.90;;;23.30;98.30;;;;;;5048631;29;20104;-82
2022/09/24 13:18:59;;;;;;;1999.90;999.90;;;23.60;97.20;;;;;;5048430;29;20786;-81
2022/09/24 13:21:30;;;;;;;1999.90;999.90;;;23.20;99.90;;;;;;5046073;29;20088;-79
2022/09/24 13:24:10;;;;;;;1999.90;999.90;;;23.40;99.90;;;;;;5047255;29;20116;-80
2022/09/24 13:26:41;;;;;;;1999.90;999.90;;;23.40;99.90;;;;;;5053758;29;20037;-82
2022/09/24 13:29:24;;;;;;;1999.90;999.90;;;22.80;99.90;;;;;;5066561;29;20029;-80
2022/09/24 13:32:01;;;;;;;1999.90;999.90;;;23.30;99.90;;;;;;5066342;29;20033;-83
2022/09/24 13:34:33;;;;;;;1999.90;999.90;;;23.20;99.90;;;;;;5066446;29;20028;-81
2022/09/24 13:37:32;;;;;;;1999.90;999.90;;;23.00;99.90;;;;;;5048755;29;20029;-81
2022/09/24 13:40:14;;;;;;;1999.90;999.90;;;22.30;99.90;;;;;;5066568;29;20041;-80
2022/09/24 13:43:16;;;;;;;1999.90;999.90;;;22.10;99.90;;;;;;5066227;29;20135;-81
2022/09/24 13:45:47;;;;;;;1999.90;999.90;;;22.30;99.90;;;;;;5058308;29;20036;-81
2022/09/24 13:48:37;;;;;;;1999.90;999.90;;;21.90;99.90;;;;;;5066266;29;20037;-80
2022/09/24 13:51:11;;;;;;;1999.90;999.90;;;22.00;99.90;;;;;;5066387;29;20080;-82
2022/09/24 13:54:05;;;;;;;1999.90;999.90;;;22.60;99.90;;;;;;5070884;29;20037;-84
2022/09/24 13:56:36;;;;;;;1999.90;999.90;;;22.50;99.90;;;;;;5040590;29;20044;-83
2022/09/24 13:59:11;;;;;;;1999.90;999.90;;;22.20;99.90;;;;;;5046675;29;20508;-74
2022/09/24 14:01:43;;;;;;;1999.90;999.90;;;22.40;99.90;;;;;;5046574;29;20036;-79
2022/09/24 14:04:21;;;;;;;1999.90;999.90;;;22.00;99.90;;;;;;5046279;29;20033;-82
2022/09/24 14:07:00;;;;;;;1999.90;999.90;;;22.00;99.90;;;;;;5046133;29;20047;-80
2022/09/24 14:09:34;;;;;;;1999.90;999.90;;;22.40;99.90;;;;;;5046589;29;20041;-82
2022/09/24 14:12:20;;;;;;;1999.90;999.90;;;22.10;99.90;;;;;;5046283;29;20040;-80
2022/09/24 14:14:56;;;;;;;1999.90;999.90;;;21.70;99.90;;;;;;5046360;29;20545;-83
2022/09/24 14:17:27;;;;;;;1999.90;999.90;;;21.70;99.90;;;;;;5046448;29;20037;-82
2022/09/24 14:19:58;;;;;;;1999.90;999.90;;;21.60;99.90;;;;;;5046523;29;20033;-83
2022/09/24 14:22:38;;;;;;;1999.90;999.90;;;21.60;99.90;;;;;;5046312;29;20045;-82
2022/09/24 14:25:16;;;;;;;1999.90;999.90;;;21.70;99.90;;;;;;5046228;29;20112;-83
2022/09/24 14:27:49;;;;;;;1999.90;999.90;;;21.80;99.90;;;;;;5046336;29;20367;-82
2022/09/24 14:30:29;;;;;;;1999.90;999.90;;;21.70;99.90;;;;;;5046376;29;20100;-82
2022/09/24 14:33:06;;;;;;;1999.90;999.90;;;21.40;99.90;;;;;;5046686;29;20065;-83
2022/09/24 14:35:38;;;;;;;1999.90;999.90;;;21.60;99.90;;;;;;5046329;29;20397;-82
2022/09/24 14:38:28;;;;;;;1999.90;999.90;;;21.30;99.90;;;;;;5046238;29;20040;-82
2022/09/24 14:41:12;;;;;;;1999.90;999.90;;;21.30;99.90;;;;;;5046254;29;20112;-83
2022/09/24 14:43:46;;;;;;;1999.90;999.90;;;21.10;99.90;;;;;;5046224;29;20453;-80
2022/09/24 14:46:36;;;;;;;1999.90;999.90;;;21.10;99.90;;;;;;5046065;29;20033;-82
2022/09/24 14:49:34;;;;;;;1999.90;999.90;;;21.00;99.90;;;;;;5049712;29;20037;-82
2022/09/24 14:52:22;;;;;;;1999.90;999.90;;;21.00;99.90;;;;;;5049944;29;20111;-83
2022/09/24 14:55:20;;;;;;;1999.90;999.90;;;20.70;99.90;;;;;;5049913;29;20062;-83
2022/09/24 14:57:51;;;;;;;1999.90;999.90;;;20.30;99.90;;;;;;5048419;29;20037;-81
2022/09/24 15:00:29;;;;;;;1999.90;999.90;;;19.90;99.90;;;;;;5049904;29;20370;-80
2022/09/24 15:03:04;;;;;;;1999.90;999.90;;;19.70;99.90;;;;;;5050023;29;20041;-84
2022/09/24 15:05:35;;;;;;;1999.90;999.90;;;19.20;99.90;;;;;;5049656;29;20068;-84
2022/09/24 15:08:26;;;;;;;1999.90;999.90;;;19.30;99.90;;;;;;5049681;29;20029;-82
2022/09/24 15:11:03;;;;;;;1999.90;999.90;;;18.60;99.90;;;;;;5049712;29;20029;-84
2022/09/24 15:13:36;;;;;;;1999.90;999.90;;;18.10;99.90;;;;;;5049725;29;20057;-83
2022/09/24 15:16:32;;;;;;;1999.90;999.90;;;18.00;99.90;;;;;;5049714;29;20061;-83
2022/09/24 15:19:05;;;;;;;1999.90;999.90;;;17.90;99.90;;;;;;5049788;29;20029;-77
2022/09/24 15:21:36;;;;;;;1999.90;999.90;;;17.60;99.90;;;;;;5049540;29;20092;-83
2022/09/24 15:24:08;;;;;;;1999.90;999.90;;;17.20;99.90;;;;;;5049363;29;20064;-82
2022/09/24 15:26:42;;;;;;;1999.90;999.90;;;16.90;99.90;;;;;;5049625;29;20041;-82
2022/09/24 15:29:24;;;;;;;1999.90;999.90;;;17.00;99.90;;;;;;5049460;29;20557;-79
2022/09/24 15:31:56;;;;;;;1999.90;999.90;;;16.90;99.90;;;;;;5049532;29;20025;-83
2022/09/24 15:34:27;;;;;;;1999.90;999.90;;;16.80;99.90;;;;;;5049327;29;20036;-83
2022/09/24 15:36:58;;;;;;;1999.90;999.90;;;16.40;99.90;;;;;;5049595;29;20041;-81
2022/09/24 15:39:30;;;;;;;1999.90;999.90;;;16.60;99.90;;;;;;5049561;29;20343;-82
2022/09/24 15:42:01;;;;;;;1999.90;999.90;;;16.30;99.90;;;;;;5049253;29;20044;-81
2022/09/24 15:44:32;;;;;;;1999.90;999.90;;;16.10;99.90;;;;;;5049109;29;20496;-83
2022/09/24 15:47:03;;;;;;;1999.90;999.90;;;16.00;99.90;;;;;;5049032;29;20193;-83
2022/09/24 15:49:33;;;;;;;1999.90;999.90;;;16.00;99.90;;;;;;5049084;29;20029;-81
2022/09/24 15:52:27;;;;;;;1999.90;999.90;;;15.90;99.90;;;;;;5049034;29;20082;-82
2022/09/24 15:55:01;;;;;;;1999.90;999.90;;;15.90;99.90;;;;;;5048412;29;20045;-84
2022/09/24 15:57:32;;;;;;;1999.90;999.90;;;15.50;99.90;;;;;;5057935;29;20040;-78
2022/09/24 16:00:03;;;;;;;1999.90;999.90;;;15.80;99.90;;;;;;5067039;29;20028;-79
2022/09/24 16:02:34;;;;;;;1999.90;999.90;;;15.30;99.90;;;;;;5068020;29;20033;-79
2022/09/24 16:05:11;;;;;;;1999.90;999.90;;;15.30;99.90;;;;;;5068027;29;20382;-82
2022/09/24 16:07:42;;;;;;;1999.90;999.90;;;15.00;99.90;;;;;;5068182;29;20040;-79
2022/09/24 16:10:14;;;;;;;1999.90;999.90;;;14.90;99.90;;;;;;5068479;29;20032;-80
2022/09/24 16:12:45;;;;;;;1999.90;999.90;;;15.10;99.90;;;;;;5067643;29;20422;-85
2022/09/24 16:15:16;;;;;;;1999.90;999.90;;;14.80;99.90;;;;;;5067890;29;20040;-83
2022/09/24 16:17:48;;;;;;;1999.90;999.90;;;14.90;99.90;;;;;;5067880;29;20473;-81
2022/09/24 16:20:19;;;;;;;1999.90;999.90;;;14.70;99.90;;;;;;5067541;29;20048;-73
2022/09/24 16:22:50;;;;;;;1999.90;999.90;;;14.50;99.90;;;;;;5067700;29;20033;-82
2022/09/24 16:25:21;;;;;;;1999.90;999.90;;;14.40;99.90;;;;;;5067566;29;20064;-80
2022/09/24 16:27:51;;;;;;;1999.90;999.90;;;14.50;99.90;;;;;;5067695;29;20032;-80
2022/09/24 16:30:22;;;;;;;1999.90;999.90;;;14.20;99.90;;;;;;5067620;29;20135;-80
2022/09/24 16:32:53;;;;;;;1999.90;999.90;;;14.20;99.90;;;;;;5067687;29;20380;-79
2022/09/24 16:35:24;;;;;;;1999.90;999.90;;;13.80;99.90;;;;;;5074464;29;20067;-79
2022/09/24 16:37:55;;;;;;;1999.90;999.90;;;13.80;99.90;;;;;;5076584;29;20080;-80
2022/09/24 16:40:26;;;;;;;1999.90;999.90;;;13.80;99.90;;;;;;5074348;29;20028;-78
2022/09/24 16:42:57;;;;;;;1999.90;999.90;;;13.70;99.90;;;;;;5076001;29;20507;-79
2022/09/24 16:45:29;;;;;;;1999.90;999.90;;;13.80;99.90;;;;;;5076754;29;20032;-79
2022/09/24 16:48:00;;;;;;;1999.90;999.90;;;13.60;99.90;;;;;;5060529;29;20029;-81
2022/09/24 16:50:31;;;;;;;1999.90;999.90;;;13.40;99.90;;;;;;5046810;29;20544;-79
2022/09/24 16:53:02;;;;;;;1999.90;999.90;;;13.20;99.90;;;;;;5047805;29;20100;-82
2022/09/24 16:55:32;;;;;;;1999.90;999.90;;;13.30;99.90;;;;;;5047896;29;20611;-81
2022/09/24 16:58:03;;;;;;;1999.90;999.90;;;13.50;99.90;;;;;;5047805;29;20064;-81
2022/09/24 17:00:34;;;;;;;1999.90;999.90;;;13.20;99.90;;;;;;5047743;29;20041;-78
2022/09/24 17:03:05;;;;;;;1999.90;999.90;;;13.00;99.90;;;;;;5047617;29;20513;-81
2022/09/24 17:05:39;;;;;;;1999.90;999.90;;;13.10;99.90;;;;;;5047458;29;20482;-80
2022/09/24 17:08:10;;;;;;;1999.90;999.90;;;12.80;99.90;;;;;;5047621;29;20064;-79
2022/09/24 17:10:48;;;;;;;1999.90;999.90;;;13.00;99.90;;;;;;5047311;29;20501;-72
2022/09/24 17:13:21;;;;;;;1999.90;999.90;;;13.00;99.90;;;;;;5047542;29;20025;-81
2022/09/24 17:15:52;;;;;;;1999.90;999.90;;;12.70;99.90;;;;;;5047398;29;20025;-79
2022/09/24 17:18:24;;;;;;;1999.90;999.90;;;12.70;99.90;;;;;;5047499;29;20438;-81
2022/09/24 17:21:03;;;;;;;1999.90;999.90;;;12.70;99.90;;;;;;5047225;29;20056;-82
2022/09/24 17:23:34;;;;;;;1999.90;999.90;;;12.60;99.90;;;;;;5047332;29;20070;-80
2022/09/24 17:26:08;;;;;;;1999.90;999.90;;;12.70;99.90;;;;;;5047336;29;20043;-82
2022/09/24 17:28:42;;;;;;;1999.90;999.90;;;12.70;99.90;;;;;;5047669;29;20465;-79
2022/09/24 17:31:15;;;;;;;1999.90;999.90;;;12.70;99.90;;;;;;5047241;29;20060;-81
2022/09/24 17:33:54;;;;;;;1999.90;999.90;;;12.40;99.90;;;;;;5047233;29;20039;-82
2022/09/24 17:36:27;;;;;;;1999.90;999.90;;;12.70;99.90;;;;;;5056519;29;20054;-81
2022/09/24 17:38:59;;;;;;;1999.90;999.90;;;12.20;99.90;;;;;;5066539;29;20393;-81
2022/09/24 17:41:29;;;;;;;1999.90;999.90;;;12.00;99.90;;;;;;5066405;29;20048;-80
2022/09/24 17:44:01;;;;;;;1999.90;999.90;;;12.20;99.90;;;;;;5066367;29;20147;-81
2022/09/24 17:46:34;;;;;;;1999.90;999.90;;;12.40;99.90;;;;;;5066265;29;20453;-81
2022/09/24 17:49:05;;;;;;;1999.90;999.90;;;12.40;99.90;;;;;;5066277;29;20385;-76
2022/09/24 17:51:36;;;;;;;1999.90;999.90;;;11.80;99.90;;;;;;5066527;29;20036;-78
2022/09/24 17:54:15;;;;;;;1999.90;999.90;;;11.70;99.90;;;;;;5066237;29;20115;-78
2022/09/24 17:56:46;;;;;;;1999.90;999.90;;;11.90;99.90;;;;;;5067274;29;20382;-73
2022/09/24 17:59:17;;;;;;;1999.90;999.90;;;12.10;99.90;;;;;;5074997;29;20016;-72
2022/09/24 18:01:50;;;;;;;1999.90;999.90;;;11.90;99.90;;;;;;5065566;29;20052;-78
2022/09/24 18:04:21;;;;;;;1999.90;999.90;;;11.70;99.90;;;;;;5065123;29;21198;-75
2022/09/24 18:06:52;;;;;;;1999.90;999.90;;;11.80;99.90;;;;;;5065931;29;20061;-79
2022/09/24 18:09:23;;;;;;;1999.90;999.90;;;11.80;99.90;;;;;;5065722;29;20064;-77
2022/09/24 18:11:55;;;;;;;1999.90;999.90;;;11.90;99.90;;;;;;5065962;29;20025;-78
2022/09/24 18:14:26;;;;;;;1999.90;999.90;;;11.60;99.90;;;;;;5065739;29;20140;-79
2022/09/24 18:16:58;;;;;;;1999.90;999.90;;;11.50;99.90;;;;;;5065534;29;20115;-81
2022/09/24 18:19:29;;;;;;;1999.90;999.90;;;11.50;99.90;;;;;;5065421;29;20083;-79
2022/09/24 18:22:02;;;;;;;1999.90;999.90;;;11.50;99.90;;;;;;5064949;29;20039;-79
2022/09/24 18:24:33;;;;;;;1999.90;999.90;;;11.50;99.90;;;;;;5074584;29;20151;-78
2022/09/24 18:27:04;;;;;;;1999.90;999.90;;;11.50;99.90;;;;;;5072482;29;20512;-78
2022/09/24 18:29:36;;;;;;;1999.90;999.90;;;11.50;99.90;;;;;;5074089;29;20032;-78
2022/09/24 18:32:06;;;;;;;1999.90;999.90;;;11.60;99.90;;;;;;5072989;29;20655;-79
2022/09/24 18:34:37;;;;;;;1999.90;999.90;;;11.20;99.90;;;;;;5073597;29;20063;-78
2022/09/24 18:37:08;;;;;;;1999.90;999.90;;;11.30;99.90;;;;;;5074449;29;20354;-78
2022/09/24 18:39:40;;;;;;;1999.90;999.90;;;11.40;99.90;;;;;;5074661;29;20047;-79
2022/09/24 18:42:12;;;;;;;1999.90;999.90;;;10.90;99.90;;;;;;5074539;29;20462;-78
2022/09/24 18:44:45;;;;;;;1999.90;999.90;;;10.90;99.90;;;;;;5072619;29;20032;-75
2022/09/24 18:47:19;;;;;;;1999.90;999.90;;;11.10;99.90;;;;;;5075795;29;20512;-83
2022/09/24 18:49:50;;;;;;;1999.90;999.90;;;11.20;99.90;;;;;;5078901;29;20044;-79
2022/09/24 18:52:22;;;;;;;1999.90;999.90;;;10.80;99.90;;;;;;5083663;29;20468;-76
2022/09/24 18:54:53;;;;;;;1999.90;999.90;;;11.00;99.90;;;;;;5082851;29;20123;-74
2022/09/24 18:57:24;;;;;;;1999.90;999.90;;;10.60;99.90;;;;;;5067982;29;20441;-73
2022/09/24 18:59:55;;;;;;;1999.90;999.90;;;10.70;99.90;;;;;;5071593;29;20040;-80
2022/09/24 19:02:26;;;;;;;1999.90;999.90;;;10.50;99.90;;;;;;5067606;29;20498;-76
2022/09/24 19:04:57;;;;;;;1999.90;999.90;;;10.70;99.90;;;;;;5084969;29;20061;-79
2022/09/24 19:07:29;;;;;;;1999.90;999.90;;;10.70;99.90;;;;;;5066401;29;20779;-80
2022/09/24 19:10:00;;;;;;;1999.90;999.90;;;10.70;99.90;;;;;;5065391;29;20063;-81
2022/09/24 19:12:30;;;;;;;1999.90;999.90;;;10.60;99.90;;;;;;5065567;29;20437;-74
2022/09/24 19:15:02;;;;;;;1999.90;999.90;;;10.40;99.90;;;;;;5065430;29;20076;-82
2022/09/24 19:17:32;;;;;;;1999.90;999.90;;;10.40;99.90;;;;;;5068163;29;20311;-80
2022/09/24 19:20:03;;;;;;;1999.90;999.90;;;10.30;99.90;;;;;;5065228;29;20084;-80
2022/09/24 19:22:34;;;;;;;1999.90;999.90;;;10.40;99.90;;;;;;5065084;29;20381;-75
2022/09/24 19:25:06;;;;;;;1999.90;999.90;;;10.30;99.90;;;;;;5065026;29;20051;-81
2022/09/24 19:27:39;;;;;;;1999.90;999.90;;;10.50;99.90;;;;;;5065104;29;20084;-73
2022/09/24 19:30:11;;;;;;;1999.90;999.90;;;10.40;99.90;;;;;;5065052;29;20377;-81
2022/09/24 19:32:42;;;;;;;1999.90;999.90;;;10.40;99.90;;;;;;5064053;29;20433;-80
2022/09/24 19:35:12;;;;;;;1999.90;999.90;;;10.30;99.90;;;;;;5067297;29;20037;-80
2022/09/24 19:37:43;;;;;;;1999.90;999.90;;;10.10;99.90;;;;;;5068986;29;20072;-81
2022/09/24 19:40:15;;;;;;;1999.90;999.90;;;10.20;99.90;;;;;;5074487;29;20028;-74
2022/09/24 19:42:46;;;;;;;1999.90;999.90;;;10.30;99.90;;;;;;5087894;29;20396;-75
2022/09/24 19:45:17;;;;;;;1999.90;999.90;;;10.10;99.90;;;;;;5088088;29;20032;-74
2022/09/24 19:47:49;;;;;;;1999.90;999.90;;;10.20;99.90;;;;;;5088375;29;20033;-80
2022/09/24 19:50:21;;;;;;;1999.90;999.90;;;10.00;99.90;;;;;;5088642;29;20036;-80
2022/09/24 19:52:54;;;;;;;1999.90;999.90;;;10.00;99.90;;;;;;5088357;29;20123;-80
2022/09/24 19:55:25;;;;;;;1999.90;999.90;;;10.10;99.90;;;;;;5088404;29;20063;-80
2022/09/24 19:57:57;;;;;;;1999.90;999.90;;;10.00;99.90;;;;;;5088666;29;20036;-80
2022/09/24 20:00:28;;;;;;;1999.90;999.90;;;9.90;99.90;;;;;;5071415;29;20084;-72
2022/09/24 20:03:00;;;;;;;1999.90;999.90;;;10.10;99.90;;;;;;5088114;29;20043;-79
2022/09/24 20:05:30;;;;;;;1999.90;999.90;;;9.80;99.90;;;;;;5087106;29;20497;-80
2022/09/24 20:08:01;;;;;;;1999.90;999.90;;;9.70;99.90;;;;;;5087927;29;20032;-76
2022/09/24 20:10:35;;;;;;;1999.90;999.90;;;10.00;99.90;;;;;;5087659;29;20035;-77
2022/09/24 20:13:08;;;;;;;1999.90;999.90;;;10.10;99.90;;;;;;5087823;29;20035;-81
2022/09/24 20:15:40;;;;;;;1999.90;999.90;;;9.70;99.90;;;;;;5086652;29;20103;-81
2022/09/24 20:18:11;;;;;;;1999.90;999.90;;;9.70;99.90;;;;;;5087683;29;20064;-79
2022/09/24 20:20:42;;;;;;;1999.90;999.90;;;9.60;99.90;;;;;;5086333;29;20388;-79
2022/09/24 20:23:13;;;;;;;1999.90;999.90;;;9.70;99.90;;;;;;5087535;29;20071;-80
2022/09/24 20:28:39;;;;;;;1999.90;999.90;;;9.80;99.90;;;;;;5087747;29;20126;-74
2022/09/24 20:31:14;;;;;;;1999.90;999.90;;;9.70;99.90;;;;;;5087401;29;20064;-80
2022/09/24 20:33:46;;;;;;;1999.90;999.90;;;9.30;99.90;;;;;;5070610;29;20126;-80
2022/09/24 20:36:18;;;;;;;1999.90;999.90;;;9.30;99.90;;;;;;5087300;29;20031;-78
2022/09/24 20:38:49;;;;;;;1999.90;999.90;;;9.30;99.90;;;;;;5087245;29;20024;-80
2022/09/24 20:41:22;;;;;;;1999.90;999.90;;;9.50;99.90;;;;;;5087539;29;20511;-81
2022/09/24 20:43:55;;;;;;;1999.90;999.90;;;9.50;99.90;;;;;;5086707;29;20040;-80
2022/09/24 20:46:27;;;;;;;1999.90;999.90;;;9.20;99.90;;;;;;5086571;29;20039;-75
2022/09/24 20:48:59;;;;;;;1999.90;999.90;;;9.40;99.90;;;;;;5085663;29;20032;-79
2022/09/24 20:51:33;;;;;;;1999.90;999.90;;;9.50;99.90;;;;;;5087187;29;20452;-81
2022/09/24 20:54:04;;;;;;;1999.90;999.90;;;9.30;99.90;;;;;;5087196;29;20035;-80
2022/09/24 20:56:35;;;;;;;1999.90;999.90;;;9.20;99.90;;;;;;5086859;29;20036;-80
2022/09/24 20:59:06;;;;;;;1999.90;999.90;;;9.30;99.90;;;;;;5069994;29;20117;-80
2022/09/24 21:01:38;;;;;;;1999.90;999.90;;;9.20;99.90;;;;;;5086974;29;20040;-80
2022/09/24 21:04:09;;;;;;;1999.90;999.90;;;9.10;99.90;;;;;;5086615;29;20028;-80
2022/09/24 21:06:39;;;;;;;1999.90;999.90;;;8.90;99.90;;;;;;5085982;29;20046;-80
2022/09/24 21:09:11;;;;;;;1999.90;999.90;;;8.90;99.90;;;;;;5085921;29;20115;-81
2022/09/24 21:11:42;;;;;;;1999.90;999.90;;;9.10;99.90;;;;;;5086686;29;20035;-73
2022/09/24 21:14:13;;;;;;;1999.90;999.90;;;9.20;99.90;;;;;;5086476;29;20603;-74
2022/09/24 21:16:45;;;;;;;1999.90;999.90;;;9.00;99.90;;;;;;5069427;29;20028;-75
2022/09/24 21:19:16;;;;;;;1999.90;999.90;;;9.10;99.90;;;;;;5086671;29;20028;-73
2022/09/24 21:21:47;;;;;;;1999.90;999.90;;;8.80;99.90;;;;;;5086193;29;20035;-79
2022/09/24 21:24:18;;;;;;;1999.90;999.90;;;9.00;99.90;;;;;;5086457;29;20575;-80
2022/09/24 21:26:49;;;;;;;1999.90;999.90;;;9.00;99.90;;;;;;5086232;29;20136;-77
2022/09/24 21:29:22;;;;;;;1999.90;999.90;;;9.00;99.90;;;;;;5086202;29;20360;-75
2022/09/24 21:31:53;;;;;;;1999.90;999.90;;;8.60;99.90;;;;;;5085336;29;20496;-77
2022/09/24 21:34:25;;;;;;;1999.90;999.90;;;8.90;99.90;;;;;;5086211;29;20020;-80
2022/09/24 21:36:56;;;;;;;1999.90;999.90;;;8.80;99.90;;;;;;5086519;29;20032;-81
2022/09/24 21:39:27;;;;;;;1999.90;999.90;;;8.90;99.90;;;;;;5086580;29;20108;-73
2022/09/24 21:41:58;;;;;;;1999.90;999.90;;;8.90;99.90;;;;;;5086513;29;20131;-81
2022/09/24 21:44:32;;;;;;;1999.90;999.90;;;8.70;99.90;;;;;;5086251;29;20096;-81
2022/09/24 21:47:03;;;;;;;1999.90;999.90;;;8.70;99.90;;;;;;5085998;29;20525;-79
2022/09/24 21:49:35;;;;;;;1999.90;999.90;;;8.70;99.90;;;;;;5086115;29;20024;-81
2022/09/24 21:52:06;;;;;;;1999.90;999.90;;;8.50;99.90;;;;;;5086096;29;20032;-79
2022/09/24 21:54:38;;;;;;;1999.90;999.90;;;8.50;99.90;;;;;;5085958;29;20040;-74
2022/09/24 21:57:09;;;;;;;1999.90;999.90;;;8.60;99.90;;;;;;5085024;29;20088;-81
2022/09/24 21:59:58;;;;;;;1999.90;999.90;;;8.80;99.90;;;;;;5085591;29;20107;-81
2022/09/24 22:02:30;;;;;;;1999.90;999.90;;;8.70;99.90;;;;;;5084389;29;20099;-81